Nearby METAR Reports

 

KDLZ - Delaware, Ohio, USA
Distance from station: WNW 14mi, 22km
Updated: Wed, 31-Dec-1969 7:00pm EST
NOT Current
unable to load KDLZ data RC=
unable to load KDLZ data RC=
 
KCMH - Columbus, Ohio, USA
Distance from station: S 14mi, 23km
Updated: Sun, 16-Dec-2018 4:51am EST
Light rain, Mist, Overcast
Light rain, Mist, Overcast
 Wind from N
Wind: N 8 mph , 13 km/h
Temperature: 43°F , 6°C
Wind Chill: 38°F , 3°C
Dew Point: 41°F , 5°C
Humidity: 93%
Barometer: 29.92 inHg , 1013.2 hPa
Summary: Light rain, Mist
Clouds: Overcast
Visibility: 2 1/2 miles , 4 km
Cloud details: Mostly cloudy 700 ft
Overcast 1100 ft
2018/12/16 09:51 KCMH 160951Z 35007KT 2 1/2SM -RA BR BKN007 OVC011 06/05 A2992 RMK AO2 RAB10 SLP135 P0001 T00610050 $
 
KOSU - Columbus/St Univ, Ohio, USA
Distance from station: SW 14mi, 23km
Updated: Sun, 16-Dec-2018 5:23am EST
Mist, Overcast
Mist, Overcast
 Wind from NNW
Wind: NNW 9 mph , 15 km/h
Temperature: 41°F , 5°C
Wind Chill: 35°F , 2°C
Dew Point: 39°F , 4°C
Humidity: 93%
Barometer: 29.94 inHg , 1013.9 hPa
Summary: Mist
Clouds: Overcast
Visibility: 2 1/2 miles , 4 km
Cloud details: Overcast 400 ft
2018/12/16 10:23 KOSU 161023Z AUTO 34008KT 2 1/2SM BR OVC004 05/04 A2994 RMK AO2 RAE23 P0000 T00500044
K4I3 - Mt Vernon/Knox, Ohio, USA
Distance from station: ENE 20mi, 32km
Updated: Sun, 16-Dec-2018 5:16am EST
Light drizzle, Overcast
Light drizzle, Overcast
 Wind from N
Wind: N 8 mph , 13 km/h
Temperature: 39°F , 4°C
Wind Chill: 33°F , 1°C
Dew Point: 39°F , 4°C
Humidity: 100%
Barometer: 29.93 inHg , 1013.5 hPa
Summary: Light Drizzle
Clouds: Overcast
Visibility: 2 1/2 miles , 4 km
Cloud details: Overcast 600 ft
2018/12/16 10:16 K4I3 161016Z AUTO 01007KT 2 1/2SM -DZ OVC006 04/04 A2993 RMK AO2
 
KMRT - Marysville, Ohio, USA
Distance from station: W 25mi, 40km
Updated: Sun, 16-Dec-2018 5:15am EST
Overcast
Overcast
 Wind from NNE
Wind: NNE 10 mph , 17 km/h
Temperature: 39°F , 4°C
Wind Chill: 32°F , 0°C
Dew Point: 37°F , 3°C
Humidity: 93%
Barometer: 29.96 inHg , 1014.6 hPa
Clouds: Overcast
Visibility: 3 miles , 5 km
Cloud details: Overcast 400 ft
2018/12/16 10:15 KMRT 161015Z AUTO 02009KT 3SM OVC004 04/03 A2996 RMK AO2 T00370033
KTZR - Columbus/Bolton, Ohio, USA
Distance from station: SSW 25mi, 41km
Updated: Sun, 16-Dec-2018 5:15am EST
Heavy drizzle, Overcast
Heavy drizzle, Overcast
 Wind from N
Wind: N 9 mph , 15 km/h
Temperature: 41°F , 5°C
Wind Chill: 35°F , 2°C
Dew Point: 41°F , 5°C
Humidity: 100%
Barometer: 29.94 inHg , 1013.9 hPa
Summary: Heavy Drizzle
Clouds: Overcast
Visibility: 2 1/2 miles , 4 km
Cloud details: Overcast 600 ft
2018/12/16 10:15 KTZR 161015Z AUTO 35008KT 2 1/2SM +DZ OVC006 05/05 A2994 RMK AO2 T00500045
 
KVTA - Newark, Ohio, USA
Distance from station: ESE 25mi, 41km
Updated: Sun, 16-Dec-2018 4:54am EST
Mist, Overcast
Mist, Overcast
 Wind from N
Wind: N 7 mph , 11 km/h
Temperature: 45°F , 7°C
Wind Chill: 41°F , 5°C
Dew Point: 41°F , 5°C
Humidity: 87%
Barometer: 29.90 inHg , 1012.5 hPa
Summary: Mist
Clouds: Overcast
Visibility: 4 miles , 6 km
Cloud details: Overcast 700 ft
2018/12/16 09:54 KVTA 160954Z AUTO 36006KT 4SM BR OVC007 07/05 A2990 RMK AO2 SLP128 T00670050
KLCK - Rickenbacker Ang, Ohio, USA
Distance from station: S 27mi, 44km
Updated: Sun, 16-Dec-2018 5:15am EST
Heavy drizzle, Overcast
Heavy drizzle, Overcast
 Wind from N
Wind: N 8 mph , 13 km/h
Temperature: 41°F , 5°C
Wind Chill: 36°F , 2°C
Dew Point: 41°F , 5°C
Humidity: 100%
Barometer: 29.93 inHg , 1013.5 hPa
Summary: Heavy Drizzle
Clouds: Overcast
Visibility: 3 miles , 5 km
Cloud details: Overcast 500 ft
2018/12/16 10:15 KLCK 161015Z AUTO 35007KT 3SM +DZ OVC005 05/05 A2993 RMK AO2 T00540052
 
KMNN - Marion, Ohio, USA
Distance from station: NNW 30mi, 48km
Updated: Sun, 16-Dec-2018 5:02am EST
Mist, Overcast
Mist, Overcast
 Wind from N
Wind: N 12 mph , 19 km/h
Temperature: 39°F , 4°C
Wind Chill: 32°F , 0°C
Dew Point: 37°F , 3°C
Humidity: 93%
Barometer: 29.96 inHg , 1014.6 hPa
Summary: Mist
Clouds: Overcast
Visibility: 4 miles , 6 km
Cloud details: Overcast 700 ft
2018/12/16 10:02 KMNN 161002Z AUTO 01010KT 4SM BR OVC007 04/03 A2996 RMK AO2 T00390033 $
KLHQ - Lancaster, Ohio, USA
Distance from station: SSE 34mi, 54km
Updated: Sun, 16-Dec-2018 5:21am EST
Light rain, Mist, Overcast
Light rain, Mist, Overcast
 Wind from N
Wind: N 6 mph , 9 km/h
Temperature: 43°F , 6°C
Wind Chill: 39°F , 4°C
Dew Point: 43°F , 6°C
Humidity: 100%
Barometer: 29.92 inHg , 1013.2 hPa
Summary: Light rain, Mist
Clouds: Overcast
Visibility: 3 miles , 5 km
Cloud details: Overcast 600 ft
2018/12/16 10:21 KLHQ 161021Z AUTO 35005KT 3SM -RA BR OVC006 06/06 A2992 RMK AO2 RAB0956 CIG 003V008 P0001 T00610061
 
KUYF - London, Ohio, USA
Distance from station: WSW 37mi, 59km
Updated: Sun, 16-Dec-2018 5:15am EST
Mist, Overcast
Mist, Overcast
 Wind from N
Wind: N 10 mph , 17 km/h
Temperature: 39°F , 4°C
Wind Chill: 32°F , 0°C
Dew Point: 37°F , 3°C
Humidity: 93%
Barometer: 29.94 inHg , 1013.9 hPa
Summary: Mist
Clouds: Overcast
Visibility: 2 miles , 3 km
Cloud details: Overcast 400 ft
2018/12/16 10:15 KUYF 161015Z AUTO 36009KT 2SM BR OVC004 04/03 A2994 RMK AO2